Time;durP1;ratioP1;P1;durP2;ratioP2;P2;SDS_P1;SDS_P2;PMS_P1;PMS_P2;Temp;Humidity;BMP_temperature;BMP_pressure;BME280_temperature;BME280_humidity;BME280_pressure;Samples;Min_cycle;Max_cycle;Signal;HPM_P1;HPM_P2
2022/11/10 00:01:06;;;;;;;0.00;0.00;;;;;;;14.52;69.61;98195.88;8414925;28;20231;-74
2022/11/10 00:05:09;;;;;;;0.10;0.10;;;;;;;14.56;69.51;98199.97;8414938;28;20446;-74
2022/11/10 00:09:12;;;;;;;0.00;0.00;;;;;;;14.43;69.66;98207.66;8414301;28;20242;-74
2022/11/10 00:13:16;;;;;;;0.10;0.10;;;;;;;14.44;69.32;98216.31;8414336;28;20227;-74
2022/11/10 00:17:19;;;;;;;0.00;0.00;;;;;;;14.48;69.33;98213.44;8413511;28;20235;-74
2022/11/10 00:21:22;;;;;;;0.00;0.00;;;;;;;14.51;68.71;98211.59;8414490;28;20223;-74
2022/11/10 00:25:26;;;;;;;0.00;0.00;;;;;;;14.43;68.78;98212.00;8413771;28;20257;-75
2022/11/10 00:29:29;;;;;;;0.03;0.03;;;;;;;14.45;68.93;98215.41;8414072;28;20326;-74
2022/11/10 00:33:34;;;;;;;0.00;0.00;;;;;;;14.45;68.70;98215.41;8414073;28;20423;-74
2022/11/10 00:37:37;;;;;;;0.07;0.07;;;;;;;14.38;68.31;98224.50;8413987;28;20234;-75
2022/11/10 00:41:40;;;;;;;0.10;0.10;;;;;;;14.37;68.34;98239.25;8413480;28;20230;-75
2022/11/10 00:45:43;;;;;;;0.00;0.00;;;;;;;14.35;68.55;98243.72;8413838;28;20234;-74
2022/11/10 00:49:48;;;;;;;0.10;0.10;;;;;;;14.24;67.99;98235.66;8413436;28;20238;-74
2022/11/10 00:53:51;;;;;;;0.00;0.00;;;;;;;14.22;68.23;98251.38;8413582;28;20237;-74
2022/11/10 00:57:54;;;;;;;0.10;0.10;;;;;;;14.15;68.06;98247.44;8413005;28;20506;-75
2022/11/10 01:01:56;;;;;;;0.00;0.00;;;;;;;14.12;67.75;98254.56;8412983;28;20227;-74
2022/11/10 01:06:05;;;;;;;0.00;0.00;;;;;;;14.13;67.77;98259.69;8413421;28;20303;-74
2022/11/10 01:10:08;;;;;;;0.00;0.00;;;;;;;14.08;67.51;98261.69;8412594;28;20239;-74
2022/11/10 01:14:11;;;;;;;0.00;0.00;;;;;;;14.02;67.79;98262.88;8413384;28;20237;-74
2022/11/10 01:18:13;;;;;;;0.10;0.10;;;;;;;13.98;67.28;98270.94;8412848;28;20231;-74
2022/11/10 01:22:17;;;;;;;0.00;0.00;;;;;;;13.95;67.53;98279.72;8412550;28;20222;-74
2022/11/10 01:26:21;;;;;;;0.10;0.10;;;;;;;13.80;66.86;98288.34;8412836;28;20300;-74
2022/11/10 01:30:24;;;;;;;0.03;0.03;;;;;;;13.86;66.30;98299.28;8412113;28;20234;-74
2022/11/10 01:34:27;;;;;;;0.10;0.10;;;;;;;13.83;66.30;98299.44;8412403;28;20518;-75
2022/11/10 01:38:32;;;;;;;0.10;0.10;;;;;;;13.82;66.30;98299.53;8412578;28;20301;-74
2022/11/10 01:42:43;;;;;;;0.10;0.10;;;;;;;13.71;66.33;98309.66;8412650;28;20227;-74
2022/11/10 01:46:46;;;;;;;0.00;0.00;;;;;;;13.68;65.90;98306.28;8412226;28;20230;-74
2022/11/10 01:50:49;;;;;;;0.07;0.07;;;;;;;13.62;66.21;98316.19;8412358;28;20239;-74
2022/11/10 01:54:53;;;;;;;0.03;0.03;;;;;;;13.64;66.49;98312.56;8412327;28;20238;-74
2022/11/10 01:59:03;;;;;;;0.10;0.10;;;;;;;13.64;66.11;98311.75;8412123;28;20237;-75
2022/11/10 02:03:10;;;;;;;0.10;0.10;;;;;;;13.59;66.16;98334.53;8411985;28;20510;-74
2022/11/10 02:07:13;;;;;;;0.10;0.10;;;;;;;13.53;66.05;98333.09;8412472;28;20238;-74
2022/11/10 02:11:17;;;;;;;0.00;0.00;;;;;;;13.53;66.21;98334.84;8412188;28;20301;-74
2022/11/10 02:15:20;;;;;;;0.10;0.10;;;;;;;13.49;66.50;98331.56;8412537;28;20227;-74
2022/11/10 02:19:25;;;;;;;0.00;0.00;;;;;;;13.54;66.21;98344.38;8412220;28;20280;-74
2022/11/10 02:23:48;;;;;;;0.10;0.10;;;;;;;13.58;66.45;98345.88;8411817;28;20230;-75
2022/11/10 02:27:51;;;;;;;0.10;0.10;;;;;;;13.42;66.56;98351.88;8411905;28;20300;-74
2022/11/10 02:31:54;;;;;;;0.00;0.00;;;;;;;13.45;66.31;98353.47;8411324;28;20238;-74
2022/11/10 02:35:57;;;;;;;0.07;0.07;;;;;;;13.35;66.44;98358.28;8411528;28;20235;-75
2022/11/10 02:40:02;;;;;;;0.00;0.00;;;;;;;13.37;66.59;98361.63;8412733;28;20253;-74
2022/11/10 02:44:05;;;;;;;0.10;0.10;;;;;;;13.37;66.34;98360.81;8417177;28;20246;-74
2022/11/10 02:48:08;;;;;;;0.10;0.10;;;;;;;13.31;66.88;98367.16;8416899;28;20231;-74
2022/11/10 02:52:11;;;;;;;0.10;0.10;;;;;;;13.27;66.58;98376.84;8416711;28;20234;-75
2022/11/10 02:56:15;;;;;;;0.07;0.07;;;;;;;13.30;66.58;98384.50;8417049;28;20235;-75
2022/11/10 03:00:19;;;;;;;0.00;0.00;;;;;;;13.25;66.62;98383.88;8416800;28;20235;-75
2022/11/10 03:04:21;;;;;;;0.00;0.00;;;;;;;13.26;66.43;98390.75;8416470;28;20231;-75
2022/11/10 03:08:24;;;;;;;0.00;0.00;;;;;;;13.15;66.36;98398.22;8416341;28;20231;-75
2022/11/10 03:12:28;;;;;;;0.10;0.10;;;;;;;13.17;66.16;98403.34;8416289;28;20237;-76
2022/11/10 03:16:31;;;;;;;0.10;0.10;;;;;;;13.05;65.84;98399.56;8416314;28;20241;-75
2022/11/10 03:20:34;;;;;;;0.10;0.10;;;;;;;13.16;66.09;98402.50;8415873;28;20261;-75
2022/11/10 03:24:37;;;;;;;0.10;0.10;;;;;;;13.18;66.25;98407.66;8415747;28;20254;-76
2022/11/10 03:28:41;;;;;;;0.10;0.10;;;;;;;13.08;66.16;98420.25;8415814;28;20322;-75
2022/11/10 03:32:44;;;;;;;0.10;0.10;;;;;;;13.11;66.05;98420.09;8415694;28;20246;-74
2022/11/10 03:36:47;;;;;;;0.10;0.10;;;;;;;13.04;66.12;98416.94;8415505;28;20234;-74
2022/11/10 03:40:50;;;;;;;0.10;0.10;;;;;;;13.08;66.19;98420.25;8415648;28;20238;-75
2022/11/10 03:45:15;;;;;;;0.10;0.10;;;;;;;13.01;66.72;98426.66;8414965;28;20235;-75
2022/11/10 03:49:17;;;;;;;0.10;0.10;;;;;;;12.99;65.67;98431.06;8415056;28;20235;-75
2022/11/10 03:53:20;;;;;;;0.10;0.10;;;;;;;13.02;66.08;98426.56;8414408;28;20230;-75
2022/11/10 03:57:23;;;;;;;0.07;0.07;;;;;;;12.93;66.16;98424.41;8415209;28;20321;-74
2022/11/10 04:01:27;;;;;;;0.10;0.10;;;;;;;13.01;65.60;98434.44;8414807;28;20239;-74
2022/11/10 04:09:50;;;;;;;0.10;0.10;;;;;;;12.89;65.66;98456.66;8414330;28;20232;-74
2022/11/10 04:18:23;;;;;;;0.10;0.10;;;;;;;12.80;65.75;98465.69;8414402;28;20223;-75
2022/11/10 04:26:43;;;;;;;0.10;0.10;;;;;;;12.83;65.71;98472.50;8414066;28;20518;-75
2022/11/10 04:30:46;;;;;;;0.10;0.10;;;;;;;12.83;65.62;98482.91;8413685;28;20246;-75
2022/11/10 04:34:50;;;;;;;0.10;0.10;;;;;;;12.81;65.07;98488.19;8413954;28;20456;-75
2022/11/10 04:38:54;;;;;;;0.10;0.10;;;;;;;12.79;65.48;98496.94;8413619;28;20246;-75
2022/11/10 04:42:57;;;;;;;0.10;0.10;;;;;;;12.71;65.32;98494.69;8413849;28;20230;-75
2022/11/10 04:46:59;;;;;;;0.10;0.10;;;;;;;12.73;65.23;98490.28;8413939;28;20230;-76
2022/11/10 04:51:07;;;;;;;0.10;0.10;;;;;;;12.66;65.09;98500.13;8413605;28;20300;-75
2022/11/10 04:55:10;;;;;;;0.10;0.10;;;;;;;12.62;65.01;98495.97;8413704;28;20246;-75
2022/11/10 04:59:12;;;;;;;0.10;0.10;;;;;;;12.67;65.04;98499.19;8413567;28;20277;-76
2022/11/10 05:03:15;;;;;;;0.10;0.10;;;;;;;12.61;64.56;98512.47;8412955;28;20592;-75
2022/11/10 05:07:19;;;;;;;0.10;0.10;;;;;;;12.56;64.82;98518.75;8413753;28;20272;-75
2022/11/10 05:11:22;;;;;;;0.10;0.10;;;;;;;12.54;65.09;98528.38;8413695;28;20233;-75
2022/11/10 05:15:25;;;;;;;0.10;0.10;;;;;;;12.57;64.67;98546.44;8413868;28;20234;-76
2022/11/10 05:19:28;;;;;;;0.00;0.00;;;;;;;12.41;64.67;98559.22;8413774;28;20531;-75
2022/11/10 05:23:38;;;;;;;0.10;0.10;;;;;;;12.40;65.12;98560.16;8412873;28;20238;-76
2022/11/10 05:27:41;;;;;;;0.10;0.10;;;;;;;12.36;64.28;98550.81;8412471;28;20231;-75
2022/11/10 05:31:43;;;;;;;0.10;0.10;;;;;;;12.39;64.21;98553.25;8412194;28;20239;-75
2022/11/10 05:35:53;;;;;;;0.10;0.10;;;;;;;12.35;63.74;98560.31;8411758;28;20279;-75
2022/11/10 05:39:57;;;;;;;0.10;0.10;;;;;;;12.27;64.50;98563.25;8412216;28;20226;-74
2022/11/10 05:44:00;;;;;;;0.10;0.10;;;;;;;12.30;64.35;98573.53;8412786;28;20341;-75
2022/11/10 05:48:02;;;;;;;0.10;0.10;;;;;;;12.31;64.14;98577.78;8412430;28;20246;-75
2022/11/10 05:52:05;;;;;;;0.10;0.10;;;;;;;12.24;64.31;98586.75;8412204;28;20242;-77
2022/11/10 05:56:10;;;;;;;0.10;0.10;;;;;;;12.23;64.35;98602.41;8412340;28;20234;-73
2022/11/10 06:00:15;;;;;;;0.10;0.10;;;;;;;12.10;64.18;98602.88;8412380;28;20242;-74
2022/11/10 06:04:18;;;;;;;0.10;0.10;;;;;;;12.18;63.62;98612.13;8412406;28;20329;-73
2022/11/10 06:08:21;;;;;;;0.10;0.10;;;;;;;12.16;63.34;98617.38;8411858;28;20222;-73
2022/11/10 06:12:29;;;;;;;0.10;0.10;;;;;;;12.07;63.10;98628.13;8412358;28;20227;-73
2022/11/10 06:16:36;;;;;;;0.10;0.10;;;;;;;12.10;63.20;98641.00;8417476;28;20242;-73
2022/11/10 06:20:39;;;;;;;0.10;0.10;;;;;;;12.08;62.94;98655.78;8417838;28;20306;-73
2022/11/10 06:24:42;;;;;;;0.10;0.10;;;;;;;12.05;62.65;98663.69;8416427;28;20230;-74
2022/11/10 06:28:46;;;;;;;0.10;0.10;;;;;;;12.05;62.70;98672.34;8417803;28;20242;-74
2022/11/10 06:32:49;;;;;;;0.10;0.10;;;;;;;12.01;62.42;98672.50;8417961;28;20235;-73
2022/11/10 06:36:52;;;;;;;0.10;0.10;;;;;;;12.01;62.82;98690.66;8417777;28;20239;-74
2022/11/10 06:40:54;;;;;;;0.10;0.10;;;;;;;12.01;62.81;98696.69;8416873;28;20272;-74
2022/11/10 06:44:59;;;;;;;0.10;0.10;;;;;;;12.02;62.61;98705.34;8417465;28;20623;-74
2022/11/10 06:49:01;;;;;;;0.10;0.10;;;;;;;11.96;62.86;98719.41;8417068;28;20231;-74
2022/11/10 06:53:04;;;;;;;0.10;0.10;;;;;;;12.02;62.56;98729.56;8416614;28;20284;-74
2022/11/10 06:57:07;;;;;;;0.10;0.10;;;;;;;12.10;62.48;98734.47;8416612;28;20231;-73
2022/11/10 07:01:11;;;;;;;0.10;0.10;;;;;;;12.11;63.01;98744.78;8416619;28;20238;-74
2022/11/10 07:05:15;;;;;;;0.10;0.10;;;;;;;11.99;62.93;98747.00;8416394;28;20422;-74
2022/11/10 07:09:18;;;;;;;0.10;0.10;;;;;;;11.99;62.88;98753.03;8416952;27;20226;-74
2022/11/10 07:13:21;;;;;;;0.10;0.10;;;;;;;12.11;63.22;98757.78;8416101;28;20242;-74
2022/11/10 07:17:26;;;;;;;0.10;0.10;;;;;;;12.02;63.15;98760.72;8416452;28;20233;-73
2022/11/10 07:21:29;;;;;;;0.10;0.10;;;;;;;12.15;63.75;98768.03;8416491;28;20234;-74
2022/11/10 07:25:34;;;;;;;0.10;0.10;;;;;;;12.26;63.78;98778.84;8415278;28;20315;-75
2022/11/10 07:29:37;;;;;;;0.10;0.10;;;;;;;12.41;63.43;98780.84;8416034;28;20550;-75
2022/11/10 07:33:42;;;;;;;0.10;0.10;;;;;;;12.45;63.16;98785.06;8415591;28;20230;-74
2022/11/10 07:37:45;;;;;;;0.10;0.10;;;;;;;12.84;63.40;98792.16;8415357;28;20235;-74
2022/11/10 07:41:49;;;;;;;0.10;0.10;;;;;;;14.06;60.71;98798.25;8415569;28;20530;-75
2022/11/10 07:45:54;;;;;;;0.10;0.10;;;;;;;15.30;57.63;98798.47;8415133;28;20235;-74
2022/11/10 07:49:58;;;;;;;0.10;0.10;;;;;;;15.96;55.35;98815.16;8415678;28;20258;-74
2022/11/10 07:54:01;;;;;;;0.10;0.10;;;;;;;16.23;54.74;98813.66;8415381;28;20249;-74
2022/11/10 07:58:03;;;;;;;0.10;0.10;;;;;;;16.23;55.34;98831.13;8415185;28;20522;-74
2022/11/10 08:02:09;;;;;;;0.10;0.10;;;;;;;16.41;56.18;98832.75;8415263;28;20235;-74
2022/11/10 08:06:13;;;;;;;0.10;0.10;;;;;;;16.79;55.43;98837.63;8414979;28;20640;-74
2022/11/10 08:10:16;;;;;;;0.00;0.00;;;;;;;16.97;54.83;98830.53;8414664;28;20242;-74
2022/11/10 08:14:19;;;;;;;0.00;0.00;;;;;;;17.82;53.28;98850.97;8414809;28;20249;-74
2022/11/10 08:18:23;;;;;;;0.00;0.00;;;;;;;17.89;53.46;98860.16;8414787;28;20238;-74
2022/11/10 08:22:27;;;;;;;0.00;0.00;;;;;;;16.57;56.11;98868.53;8414473;28;20423;-74
2022/11/10 08:26:30;;;;;;;0.00;0.00;;;;;;;15.88;58.08;98882.59;8414499;28;20617;-74
2022/11/10 08:30:33;;;;;;;0.00;0.00;;;;;;;15.38;58.87;98881.59;8413712;28;20280;-74
2022/11/10 08:34:35;;;;;;;0.00;0.00;;;;;;;14.91;60.08;98887.34;8414132;28;20514;-75
2022/11/10 08:38:39;;;;;;;0.03;0.03;;;;;;;15.02;60.54;98896.38;8413183;28;20235;-74
2022/11/10 08:42:42;;;;;;;0.00;0.00;;;;;;;14.89;61.36;98897.00;8414231;28;20549;-74
2022/11/10 08:46:45;;;;;;;0.00;0.00;;;;;;;15.03;60.59;98903.25;8414051;28;20234;-74
2022/11/10 08:50:49;;;;;;;0.00;0.00;;;;;;;15.13;60.93;98906.28;8413708;28;20250;-74
2022/11/10 08:54:53;;;;;;;0.00;0.00;;;;;;;15.29;60.20;98903.78;8413440;28;20231;-74
2022/11/10 08:58:56;;;;;;;0.00;0.00;;;;;;;15.88;71.96;98908.72;8412657;28;20234;-74
2022/11/10 09:03:04;;;;;;;0.00;0.00;;;;;;;16.39;67.79;98920.88;8413616;28;20234;-74
2022/11/10 09:07:06;;;;;;;0.00;0.00;;;;;;;17.10;62.36;98922.28;8413304;28;20411;-75
2022/11/10 09:11:11;;;;;;;0.00;0.00;;;;;;;17.76;58.58;98923.75;8412962;28;20245;-73
2022/11/10 09:15:14;;;;;;;0.00;0.00;;;;;;;18.26;56.15;98936.56;8413162;28;20222;-73
2022/11/10 09:19:16;;;;;;;0.00;0.00;;;;;;;18.51;54.43;98949.88;8413083;28;20234;-74
2022/11/10 09:23:23;;;;;;;0.00;0.00;;;;;;;18.51;52.57;98956.94;8413095;28;20227;-74
2022/11/10 09:27:28;;;;;;;0.00;0.00;;;;;;;18.15;52.51;98960.84;8412940;28;20223;-74
2022/11/10 09:31:31;;;;;;;0.00;0.00;;;;;;;17.91;51.62;98961.31;8412863;28;20246;-74
2022/11/10 09:35:33;;;;;;;0.00;0.00;;;;;;;18.17;52.12;98975.53;8412950;28;20246;-73
2022/11/10 09:39:36;;;;;;;0.00;0.00;;;;;;;18.21;51.40;98996.31;8412784;28;20239;-74
2022/11/10 09:43:42;;;;;;;0.10;0.10;;;;;;;18.38;50.52;98998.78;8412553;28;20233;-73
2022/11/10 09:47:50;;;;;;;0.00;0.00;;;;;;;18.24;52.11;99002.22;8412957;28;20418;-73
2022/11/10 09:51:59;;;;;;;0.00;0.00;;;;;;;18.25;50.94;99006.53;8418564;28;20245;-73
2022/11/10 09:56:04;;;;;;;0.00;0.00;;;;;;;18.89;50.75;99017.56;8419023;28;20236;-72
2022/11/10 10:00:13;;;;;;;0.00;0.00;;;;;;;19.06;49.54;99018.31;8418849;28;20232;-73
2022/11/10 10:04:26;;;;;;;0.00;0.00;;;;;;;19.21;48.81;99013.84;8418735;28;20237;-73
2022/11/10 10:08:37;;;;;;;0.00;0.00;;;;;;;19.28;48.74;99017.78;8418612;28;20244;-72
2022/11/10 10:12:50;;;;;;;0.00;0.00;;;;;;;19.16;48.58;99016.78;8418642;28;20236;-73
2022/11/10 10:16:59;;;;;;;0.00;0.00;;;;;;;19.31;48.63;99023.69;8418202;28;20521;-73
2022/11/10 10:21:30;;;;;;;0.10;0.10;;;;;;;19.18;47.92;99017.53;8418300;28;20233;-73
2022/11/10 10:25:33;;;;;;;0.00;0.00;;;;;;;18.98;48.54;99012.66;8418499;28;20236;-73
2022/11/10 10:29:38;;;;;;;0.10;0.10;;;;;;;19.23;47.70;99019.84;8418117;28;20233;-73
2022/11/10 10:33:43;;;;;;;0.00;0.00;;;;;;;19.32;47.16;99025.38;8417899;28;20261;-73
2022/11/10 10:37:49;;;;;;;0.00;0.00;;;;;;;19.25;47.62;99016.19;8417790;28;20238;-73
2022/11/10 10:41:52;;;;;;;0.00;0.00;;;;;;;19.36;47.76;99018.13;8417348;28;20236;-74
2022/11/10 10:46:06;;;;;;;0.00;0.00;;;;;;;19.49;46.88;99005.06;8417335;28;20237;-74
2022/11/10 10:50:26;;;;;;;0.00;0.00;;;;;;;19.44;47.06;99004.50;8417717;28;20503;-73
2022/11/10 10:54:31;;;;;;;0.00;0.00;;;;;;;19.18;47.18;99009.66;8417611;28;20230;-73
2022/11/10 10:58:35;;;;;;;0.00;0.00;;;;;;;18.20;48.53;99005.97;8417093;28;20253;-73
2022/11/10 11:02:38;;;;;;;0.00;0.00;;;;;;;18.22;49.25;99018.97;8416126;28;20229;-73
2022/11/10 11:06:55;;;;;;;0.00;0.00;;;;;;;17.92;49.43;99006.75;8416719;28;20248;-73
2022/11/10 11:11:07;;;;;;;0.00;0.00;;;;;;;18.24;48.87;99010.09;8416221;28;20232;-73
2022/11/10 11:15:19;;;;;;;0.00;0.00;;;;;;;17.61;49.81;99015.47;8417170;28;20231;-74
2022/11/10 11:19:24;;;;;;;0.00;0.00;;;;;;;17.58;51.52;99017.31;8416945;28;20239;-73
2022/11/10 11:23:43;;;;;;;0.00;0.00;;;;;;;17.30;52.04;99017.19;8417102;28;20228;-73
2022/11/10 11:27:53;;;;;;;0.00;0.00;;;;;;;17.23;52.52;99013.19;8417509;28;20531;-73
2022/11/10 11:32:08;;;;;;;0.00;0.00;;;;;;;17.34;52.00;99016.94;8416792;28;20324;-73
2022/11/10 11:36:21;;;;;;;0.00;0.00;;;;;;;17.84;52.00;99012.44;8417109;28;20231;-73
2022/11/10 11:40:28;;;;;;;0.00;0.00;;;;;;;17.87;50.55;99007.00;8417028;28;20227;-73
2022/11/10 11:44:45;;;;;;;0.00;0.00;;;;;;;18.26;49.97;99021.34;8416838;28;20247;-73
2022/11/10 11:48:51;;;;;;;0.00;0.00;;;;;;;18.30;50.46;99017.59;8416707;28;20231;-72
2022/11/10 11:53:00;;;;;;;0.00;0.00;;;;;;;18.32;49.95;99020.97;8416256;28;20231;-74
2022/11/10 11:57:16;;;;;;;0.00;0.00;;;;;;;18.20;49.65;99020.84;8416232;28;20297;-73
2022/11/10 12:01:34;;;;;;;0.00;0.00;;;;;;;17.50;49.60;99021.31;8416303;28;20283;-73
2022/11/10 12:05:43;;;;;;;0.00;0.00;;;;;;;17.58;50.55;99016.50;8416020;28;20248;-73
2022/11/10 12:09:48;;;;;;;0.00;0.00;;;;;;;17.90;49.03;99013.84;8415826;28;20533;-73
2022/11/10 12:13:59;;;;;;;0.00;0.00;;;;;;;17.95;48.13;99012.66;8415593;28;20481;-73
2022/11/10 12:18:10;;;;;;;0.00;0.00;;;;;;;18.15;47.35;99019.34;8415570;28;20229;-73
2022/11/10 12:22:20;;;;;;;0.00;0.00;;;;;;;18.04;49.07;99000.78;8415594;28;20248;-73
2022/11/10 12:26:32;;;;;;;0.00;0.00;;;;;;;17.68;48.94;99015.03;8415585;28;20239;-73
2022/11/10 12:30:36;;;;;;;0.00;0.00;;;;;;;17.59;48.61;99018.16;8415483;28;20232;-73
2022/11/10 12:34:41;;;;;;;0.00;0.00;;;;;;;17.45;48.95;99025.97;8415252;28;20243;-73
2022/11/10 12:38:51;;;;;;;0.00;0.00;;;;;;;17.65;48.48;99012.59;8415086;28;20227;-71
2022/11/10 12:43:03;;;;;;;0.00;0.00;;;;;;;17.50;51.01;99022.16;8414484;28;20435;-73
2022/11/10 12:47:12;;;;;;;0.00;0.00;;;;;;;17.14;51.27;99038.97;8414614;28;20238;-73
2022/11/10 12:51:22;;;;;;;0.00;0.00;;;;;;;17.35;52.22;99033.50;8414765;28;20228;-73
2022/11/10 12:55:31;;;;;;;0.00;0.00;;;;;;;17.88;50.31;99021.78;8414552;28;20231;-73
2022/11/10 12:59:34;;;;;;;0.00;0.00;;;;;;;17.72;50.72;99029.63;8414515;28;20238;-74
2022/11/10 13:03:39;;;;;;;0.00;0.00;;;;;;;17.81;50.82;99024.81;8414130;28;20284;-74
2022/11/10 13:07:44;;;;;;;0.00;0.00;;;;;;;18.24;49.72;99031.06;8414449;28;20243;-75
2022/11/10 13:12:04;;;;;;;0.00;0.00;;;;;;;17.90;48.39;99040.88;8413968;28;20243;-74
2022/11/10 13:16:09;;;;;;;0.00;0.00;;;;;;;17.73;49.47;99036.56;8413902;28;20227;-74
2022/11/10 13:20:47;;;;;;;0.00;0.00;;;;;;;17.42;49.52;99042.69;8413556;28;27856;-74
2022/11/10 13:24:50;;;;;;;0.00;0.00;;;;;;;17.29;50.43;99032.06;8413517;28;20585;-74
2022/11/10 13:29:02;;;;;;;0.00;0.00;;;;;;;17.55;50.08;99027.13;8412371;28;20238;-74
2022/11/10 13:33:29;;;;;;;0.00;0.00;;;;;;;17.32;48.79;99028.41;8413192;28;20239;-74
2022/11/10 13:37:49;;;;;;;0.00;0.00;;;;;;;17.34;49.31;99035.28;8413486;28;20234;-74
2022/11/10 13:41:56;;;;;;;0.00;0.00;;;;;;;17.35;49.24;99036.94;8413131;28;20230;-74
2022/11/10 13:46:01;;;;;;;0.00;0.00;;;;;;;17.05;49.32;99036.00;8413486;28;20523;-74
2022/11/10 13:50:18;;;;;;;0.00;0.00;;;;;;;17.06;49.53;99048.13;8413521;28;20242;-74
2022/11/10 13:54:40;;;;;;;0.00;0.00;;;;;;;16.97;50.08;99060.78;8413368;28;20406;-74
2022/11/10 13:58:43;;;;;;;0.00;0.00;;;;;;;17.06;49.74;99067.31;8413740;28;20235;-75
2022/11/10 14:02:52;;;;;;;0.00;0.00;;;;;;;17.12;49.57;99076.63;8413448;28;20231;-74
2022/11/10 14:06:56;;;;;;;0.00;0.00;;;;;;;17.32;49.07;99083.38;8412713;28;20231;-75
2022/11/10 14:11:02;;;;;;;0.00;0.00;;;;;;;17.03;50.72;99088.41;8413261;28;20243;-74
2022/11/10 14:15:07;;;;;;;0.00;0.00;;;;;;;16.78;49.94;99081.81;8413228;28;20235;-75
2022/11/10 14:19:23;;;;;;;0.00;0.00;;;;;;;16.73;50.91;99088.22;8413087;28;20522;-75
2022/11/10 14:23:30;;;;;;;0.00;0.00;;;;;;;16.64;51.17;99093.91;8412958;28;20234;-75
2022/11/10 14:27:35;;;;;;;0.00;0.00;;;;;;;16.47;52.20;99095.63;8412867;28;20243;-75
2022/11/10 14:31:38;;;;;;;0.00;0.00;;;;;;;16.36;52.03;99092.72;8412707;28;20231;-75
2022/11/10 14:35:46;;;;;;;0.00;0.00;;;;;;;16.26;52.62;99099.31;8415121;28;20538;-75
2022/11/10 14:39:50;;;;;;;0.00;0.00;;;;;;;16.38;52.93;99096.09;8418815;28;20238;-74
2022/11/10 14:44:02;;;;;;;0.00;0.00;;;;;;;16.54;52.31;99098.78;8418068;28;20241;-75
2022/11/10 14:48:17;;;;;;;0.00;0.00;;;;;;;16.49;52.27;99104.25;8417986;28;20239;-74
2022/11/10 14:52:21;;;;;;;0.00;0.00;;;;;;;16.37;53.09;99117.91;8418297;28;20230;-75
2022/11/10 14:56:27;;;;;;;0.00;0.00;;;;;;;16.31;52.83;99115.59;8418040;28;20222;-75
2022/11/10 15:00:38;;;;;;;0.00;0.00;;;;;;;16.17;53.38;99127.59;8418147;28;20222;-75
2022/11/10 15:04:41;;;;;;;0.00;0.00;;;;;;;16.08;54.37;99135.88;8417933;28;20546;-74
2022/11/10 15:08:48;;;;;;;0.00;0.00;;;;;;;15.96;54.58;99136.47;8417970;28;20231;-75
2022/11/10 15:13:01;;;;;;;0.00;0.00;;;;;;;15.87;54.96;99144.75;8417554;28;20235;-74
2022/11/10 15:17:07;;;;;;;0.07;0.07;;;;;;;15.69;55.48;99152.50;8417085;28;20230;-75
2022/11/10 15:21:10;;;;;;;0.00;0.00;;;;;;;15.65;55.89;99150.94;8417224;28;20268;-75
2022/11/10 15:25:16;;;;;;;0.00;0.00;;;;;;;15.60;55.87;99153.75;8417352;28;20233;-76
2022/11/10 15:29:20;;;;;;;0.10;0.10;;;;;;;15.45;56.40;99152.69;8417406;28;20227;-75
2022/11/10 15:33:28;;;;;;;0.00;0.00;;;;;;;15.42;56.84;99155.44;8417103;28;20272;-75
2022/11/10 15:37:33;;;;;;;0.00;0.00;;;;;;;15.30;56.72;99156.00;8416938;28;20348;-75
2022/11/10 15:41:37;;;;;;;0.00;0.00;;;;;;;15.23;57.15;99157.16;8416949;28;20230;-74
2022/11/10 15:45:40;;;;;;;0.10;0.10;;;;;;;15.15;56.98;99151.47;8416508;28;20242;-74
2022/11/10 15:49:47;;;;;;;0.00;0.00;;;;;;;15.10;57.22;99150.81;8415836;28;20237;-77
2022/11/10 15:53:51;;;;;;;0.10;0.10;;;;;;;14.97;57.44;99151.34;8416323;28;20284;-75
2022/11/10 15:57:54;;;;;;;0.00;0.00;;;;;;;14.92;57.92;99152.47;8415823;28;20235;-75
2022/11/10 16:01:57;;;;;;;0.00;0.00;;;;;;;14.84;57.78;99153.63;8416095;28;20258;-75
2022/11/10 16:06:02;;;;;;;0.00;0.00;;;;;;;14.76;57.80;99167.94;8415405;28;20242;-75
2022/11/10 16:10:06;;;;;;;0.00;0.00;;;;;;;14.74;57.85;99181.03;8415699;28;20545;-75
2022/11/10 16:14:13;;;;;;;0.00;0.00;;;;;;;14.67;58.50;99192.63;8415140;28;20284;-75
2022/11/10 16:18:18;;;;;;;0.00;0.00;;;;;;;14.58;58.37;99199.06;8415383;28;20253;-75
2022/11/10 16:22:23;;;;;;;0.00;0.00;;;;;;;14.54;58.20;99205.25;8415233;28;20246;-75
2022/11/10 16:26:26;;;;;;;0.00;0.00;;;;;;;14.44;58.74;99203.97;8415327;28;20227;-75
2022/11/10 16:30:29;;;;;;;0.03;0.03;;;;;;;14.34;58.81;99190.44;8415183;28;20510;-75
2022/11/10 16:34:32;;;;;;;0.00;0.00;;;;;;;14.29;58.99;99189.78;8414975;28;20325;-75
2022/11/10 16:38:36;;;;;;;0.00;0.00;;;;;;;14.25;58.59;99196.88;8414758;28;20230;-74
2022/11/10 16:42:39;;;;;;;0.00;0.00;;;;;;;14.15;58.41;99194.72;8414642;28;20277;-75
2022/11/10 16:46:43;;;;;;;0.10;0.10;;;;;;;14.10;58.87;99192.25;8414548;28;20234;-76
2022/11/10 16:50:46;;;;;;;0.10;0.10;;;;;;;14.02;59.10;99199.53;8414512;28;20235;-76
2022/11/10 16:54:50;;;;;;;0.00;0.00;;;;;;;13.88;59.31;99207.88;8414377;28;20237;-75
2022/11/10 16:58:53;;;;;;;0.00;0.00;;;;;;;14.00;58.95;99206.56;8413462;28;20227;-76
2022/11/10 17:03:00;;;;;;;0.07;0.07;;;;;;;13.84;59.41;99201.06;8414461;28;20581;-75
2022/11/10 17:07:03;;;;;;;0.10;0.10;;;;;;;13.70;59.34;99201.59;8414265;28;20243;-73
2022/11/10 17:11:08;;;;;;;0.00;0.00;;;;;;;13.67;58.98;99218.19;8414157;28;20231;-73
2022/11/10 17:15:12;;;;;;;0.10;0.10;;;;;;;13.72;58.94;99219.78;8414024;28;20245;-74
2022/11/10 17:19:18;;;;;;;0.10;0.10;;;;;;;13.65;58.57;99227.81;8414192;28;20229;-74
2022/11/10 17:23:23;;;;;;;0.00;0.00;;;;;;;13.59;59.51;99240.19;8413920;28;20226;-73
2022/11/10 17:27:28;;;;;;;0.10;0.10;;;;;;;13.56;59.74;99241.16;8413726;28;20226;-73
2022/11/10 17:31:37;;;;;;;0.10;0.10;;;;;;;13.54;59.26;99249.94;8412882;28;20260;-74
2022/11/10 17:35:43;;;;;;;0.10;0.10;;;;;;;13.39;58.92;99240.94;8412811;28;20234;-72
2022/11/10 17:39:46;;;;;;;0.00;0.00;;;;;;;13.38;59.60;99239.22;8412927;28;20230;-72
2022/11/10 17:43:50;;;;;;;0.00;0.00;;;;;;;13.44;59.37;99231.19;8412675;28;20238;-73
2022/11/10 17:47:54;;;;;;;0.10;0.10;;;;;;;13.46;61.21;99230.25;8412020;28;20445;-73
2022/11/10 17:51:56;;;;;;;0.10;0.10;;;;;;;13.39;59.50;99233.13;8412369;28;20463;-73
2022/11/10 17:55:59;;;;;;;0.10;0.10;;;;;;;13.18;59.35;99225.13;8412209;28;20245;-73
2022/11/10 18:00:04;;;;;;;0.10;0.10;;;;;;;13.04;59.27;99235.16;8412301;28;20238;-73
2022/11/10 18:04:08;;;;;;;0.10;0.10;;;;;;;13.15;59.45;99235.63;8412282;28;20239;-74
2022/11/10 18:08:12;;;;;;;0.10;0.10;;;;;;;13.08;59.13;99241.97;8412136;28;20237;-73
2022/11/10 18:12:15;;;;;;;0.10;0.10;;;;;;;12.99;59.45;99256.13;8416956;28;20510;-73
2022/11/10 18:16:19;;;;;;;0.10;0.10;;;;;;;13.05;59.50;99250.69;8418770;28;20265;-74
2022/11/10 18:20:22;;;;;;;0.10;0.10;;;;;;;13.08;58.75;99249.78;8418803;28;20226;-73
2022/11/10 18:24:24;;;;;;;0.07;0.07;;;;;;;13.00;58.87;99246.56;8418254;28;20230;-74
2022/11/10 18:28:27;;;;;;;0.10;0.10;;;;;;;12.98;58.41;99258.75;8418609;28;20241;-72
2022/11/10 18:32:31;;;;;;;0.10;0.10;;;;;;;12.86;58.68;99270.44;8417901;28;20234;-74
2022/11/10 18:36:34;;;;;;;0.10;0.10;;;;;;;12.82;58.51;99267.06;8417920;28;20553;-73
2022/11/10 18:40:37;;;;;;;0.10;0.10;;;;;;;12.75;58.91;99268.16;8417727;28;20234;-72
2022/11/10 18:44:40;;;;;;;0.10;0.10;;;;;;;12.71;58.55;99267.41;8417816;28;20231;-73
2022/11/10 18:48:46;;;;;;;0.10;0.10;;;;;;;12.70;58.53;99270.94;8417354;28;20235;-74
2022/11/10 18:52:49;;;;;;;0.10;0.10;;;;;;;12.69;58.11;99277.00;8418371;28;20403;-74
2022/11/10 18:56:52;;;;;;;0.10;0.10;;;;;;;12.54;58.58;99285.28;8418359;28;20245;-74
2022/11/10 19:01:01;;;;;;;0.10;0.10;;;;;;;12.60;58.37;99294.66;8417915;28;20260;-77
2022/11/10 19:05:06;;;;;;;0.10;0.10;;;;;;;12.55;58.73;99292.22;8417836;28;20231;-71
2022/11/10 19:09:11;;;;;;;0.10;0.10;;;;;;;12.40;58.53;99295.28;8417887;28;20530;-74
2022/11/10 19:13:14;;;;;;;0.00;0.00;;;;;;;12.27;58.68;99300.00;8417898;28;20231;-75
2022/11/10 19:17:18;;;;;;;0.10;0.10;;;;;;;12.25;59.40;99310.41;8417953;28;20231;-75
2022/11/10 19:21:26;;;;;;;0.10;0.10;;;;;;;12.24;58.80;99298.34;8417044;28;20226;-74
2022/11/10 19:25:29;;;;;;;0.10;0.10;;;;;;;12.12;59.47;99299.53;8417544;28;20230;-74
2022/11/10 19:29:32;;;;;;;0.10;0.10;;;;;;;12.30;59.27;99313.75;8417508;28;20588;-75